createdAt,value
2022-12-10T00:01:35.104Z,55.07
2022-12-10T00:04:36.615Z,58.92
2022-12-10T00:07:38.075Z,63.30
2022-12-10T00:10:42.256Z,55.20
2022-12-10T00:13:44.516Z,54.30
2022-12-10T00:16:46.068Z,51.55
2022-12-10T00:19:47.705Z,56.38
2022-12-10T00:22:49.183Z,53.63
2022-12-10T00:25:51.098Z,52.60
2022-12-10T00:28:53.867Z,57.20
2022-12-10T00:31:55.345Z,60.90
2022-12-10T00:34:56.820Z,58.37
2022-12-10T00:37:58.247Z,57.90
2022-12-10T00:41:00.368Z,57.67
2022-12-10T00:44:01.909Z,58.03
2022-12-10T00:47:03.995Z,63.27
2022-12-10T00:50:06.064Z,63.15
2022-12-10T00:53:07.674Z,60.22
2022-12-10T00:56:10.633Z,60.13
2022-12-10T00:59:12.179Z,57.72
2022-12-10T01:02:13.744Z,62.27
2022-12-10T01:05:17.561Z,56.30
2022-12-10T01:08:19.112Z,60.20
2022-12-10T01:11:22.637Z,56.83
2022-12-10T01:14:29.915Z,54.30
2022-12-10T01:17:31.388Z,57.78
2022-12-10T01:20:36.817Z,54.50
2022-12-10T01:23:40.483Z,59.33
2022-12-10T01:26:42.014Z,56.58
2022-12-10T01:29:43.490Z,57.77
2022-12-10T01:32:44.948Z,55.10
2022-12-10T01:35:46.611Z,54.07
2022-12-10T01:38:50.446Z,52.92
2022-12-10T01:41:55.427Z,52.10
2022-12-10T01:45:00.865Z,48.95
2022-12-10T01:48:07.798Z,52.53
2022-12-10T01:51:11.644Z,51.10
2022-12-10T01:54:18.522Z,49.70
2022-12-10T01:57:24.689Z,47.70
2022-12-10T02:00:26.263Z,49.08
2022-12-10T02:03:53.744Z,52.55
2022-12-10T02:07:02.632Z,53.72
2022-12-10T02:10:41.954Z,50.88
2022-12-10T02:13:50.978Z,46.50
2022-12-10T02:17:17.823Z,46.38
2022-12-10T02:20:48.348Z,48.63
2022-12-10T02:23:56.140Z,50.25
2022-12-10T02:27:16.776Z,53.47
2022-12-10T02:30:19.019Z,50.28
2022-12-10T02:33:23.642Z,51.20
2022-12-10T02:36:29.792Z,48.30
2022-12-10T02:39:39.106Z,53.33
2022-12-10T02:42:45.591Z,57.33
2022-12-10T02:45:47.869Z,55.15
2022-12-10T02:51:54.014Z,57.63
2022-12-10T02:54:56.822Z,59.88
2022-12-10T02:58:21.291Z,54.45
2022-12-10T03:01:40.617Z,54.30
2022-12-10T03:05:08.617Z,52.97
2022-12-10T03:08:22.153Z,53.67
2022-12-10T03:11:24.370Z,52.67
2022-12-10T03:14:31.250Z,57.40
2022-12-10T03:17:33.442Z,59.95
2022-12-10T03:20:39.590Z,55.53
2022-12-10T03:23:46.030Z,53.00
2022-12-10T03:26:49.555Z,51.72
2022-12-10T03:29:57.357Z,46.15
2022-12-10T03:32:58.923Z,47.88
2022-12-10T03:36:01.047Z,51.47
2022-12-10T03:39:03.108Z,51.70
2022-12-10T03:42:06.601Z,50.58
2022-12-10T03:45:08.807Z,55.13
2022-12-10T03:48:10.283Z,53.15
2022-12-10T03:51:11.844Z,50.37
2022-12-10T03:54:13.293Z,54.57
2022-12-10T03:57:15.156Z,58.47
2022-12-10T04:00:16.867Z,57.00
2022-12-10T04:03:18.321Z,49.03
2022-12-10T04:06:20.093Z,54.30
2022-12-10T04:09:21.652Z,52.25
2022-12-10T04:12:23.117Z,49.90
2022-12-10T04:15:43.223Z,51.57
2022-12-10T04:18:44.657Z,52.08
2022-12-10T04:22:06.366Z,50.60
2022-12-10T04:25:29.910Z,47.53
2022-12-10T04:28:31.415Z,46.35
2022-12-10T04:31:32.828Z,53.27
2022-12-10T04:34:34.534Z,53.97
2022-12-10T04:37:36.032Z,54.88
2022-12-10T04:40:37.466Z,47.87
2022-12-10T04:43:38.906Z,52.77
2022-12-10T04:46:40.504Z,50.13
2022-12-10T04:49:42.223Z,49.42
2022-12-10T04:52:44.707Z,51.50
2022-12-10T04:55:46.138Z,56.57
2022-12-10T04:58:47.675Z,48.30
2022-12-10T05:01:49.706Z,47.60
2022-12-10T05:04:51.267Z,45.90
2022-12-10T05:07:52.708Z,48.53
2022-12-10T05:10:54.143Z,53.20
2022-12-10T05:13:56.781Z,50.35
2022-12-10T05:16:58.285Z,45.42
2022-12-10T05:19:59.711Z,49.93
2022-12-10T05:23:19.612Z,48.83
2022-12-10T05:26:23.765Z,47.97
2022-12-10T05:29:28.057Z,47.40
2022-12-10T05:32:29.515Z,49.60
2022-12-10T05:35:31.182Z,54.60
2022-12-10T05:38:34.146Z,47.72
2022-12-10T05:41:38.348Z,52.42
2022-12-10T05:44:39.855Z,51.67
2022-12-10T05:47:41.415Z,48.90
2022-12-10T05:50:43.549Z,49.10
2022-12-10T05:53:45.296Z,49.28
2022-12-10T05:56:46.754Z,52.33
2022-12-10T05:59:48.174Z,53.05
2022-12-10T06:02:52.718Z,56.72
2022-12-10T06:05:54.917Z,48.47
2022-12-10T06:08:56.989Z,50.50
2022-12-10T06:11:58.485Z,54.92
2022-12-10T06:14:59.942Z,54.97
2022-12-10T06:18:01.460Z,54.07
2022-12-10T06:21:07.969Z,59.20
2022-12-10T06:24:09.444Z,53.60
2022-12-10T06:27:10.992Z,62.60
2022-12-10T06:30:12.632Z,53.03
2022-12-10T06:33:14.051Z,54.47
2022-12-10T06:36:17.696Z,55.63
2022-12-10T06:39:19.097Z,48.08
2022-12-10T06:42:21.723Z,51.22
2022-12-10T06:45:23.367Z,57.05
2022-12-10T06:48:24.995Z,54.58
2022-12-10T06:51:26.601Z,54.20
2022-12-10T06:57:30.368Z,53.17
2022-12-10T07:00:32.090Z,54.20
2022-12-10T07:03:34.032Z,53.25
2022-12-10T07:06:35.580Z,58.10
2022-12-10T07:09:37.156Z,56.57
2022-12-10T07:12:38.906Z,58.53
2022-12-10T07:15:40.370Z,54.88
2022-12-10T07:18:46.183Z,55.58
2022-12-10T07:21:52.067Z,57.50
2022-12-10T07:24:53.624Z,57.83
2022-12-10T07:27:57.856Z,55.13
2022-12-10T07:31:04.330Z,52.80
2022-12-10T07:34:05.944Z,62.78
2022-12-10T07:37:07.822Z,58.50
2022-12-10T07:40:12.022Z,56.78
2022-12-10T07:43:13.521Z,55.72
2022-12-10T07:46:22.020Z,59.17
2022-12-10T07:49:23.759Z,61.88
2022-12-10T07:52:25.180Z,62.60
2022-12-10T07:55:26.623Z,63.53
2022-12-10T07:58:28.515Z,64.50
2022-12-10T08:01:29.931Z,65.63
2022-12-10T08:04:31.433Z,72.82
2022-12-10T08:07:34.061Z,59.92
2022-12-10T08:10:39.844Z,62.47
2022-12-10T08:13:41.997Z,60.72
2022-12-10T08:16:43.551Z,57.22
2022-12-10T08:19:45.001Z,62.27
2022-12-10T08:22:46.568Z,67.53
2022-12-10T08:25:47.976Z,67.73
2022-12-10T08:28:50.346Z,66.72
2022-12-10T08:34:53.325Z,61.60
2022-12-10T08:37:54.730Z,67.27
2022-12-10T08:40:56.322Z,69.30
2022-12-10T08:43:57.745Z,66.35
2022-12-10T08:46:59.184Z,69.37
2022-12-10T08:50:00.807Z,58.13
2022-12-10T08:53:02.419Z,65.07
2022-12-10T08:56:04.126Z,65.85
2022-12-10T08:59:06.018Z,71.93
2022-12-10T09:02:14.033Z,65.93
2022-12-10T09:05:15.834Z,61.92
2022-12-10T09:08:17.357Z,64.82
2022-12-10T09:11:30.484Z,65.20
2022-12-10T09:14:31.974Z,55.97
2022-12-10T09:17:35.783Z,61.93
2022-12-10T09:20:37.936Z,66.93
2022-12-10T09:23:40.688Z,64.10
2022-12-10T09:26:42.090Z,66.78
2022-12-10T09:29:43.556Z,69.18
2022-12-10T09:32:45.644Z,64.00
2022-12-10T09:35:47.102Z,65.35
2022-12-10T09:38:49.568Z,71.22
2022-12-10T09:45:21.433Z,62.30
2022-12-10T09:48:33.241Z,65.05
2022-12-10T09:51:37.868Z,63.75
2022-12-10T09:54:45.121Z,73.90
2022-12-10T09:57:50.657Z,74.07
2022-12-10T10:01:07.149Z,61.45
2022-12-10T10:04:10.033Z,66.90
2022-12-10T10:07:21.635Z,79.10
2022-12-10T10:10:31.752Z,74.90
2022-12-10T10:13:59.441Z,65.40
2022-12-10T10:17:04.832Z,65.63
2022-12-10T10:20:06.868Z,66.00
2022-12-10T10:23:13.432Z,65.82
2022-12-10T10:26:14.946Z,65.03
2022-12-10T10:29:19.816Z,62.03
2022-12-10T10:32:50.151Z,66.28
2022-12-10T10:35:58.898Z,65.03
2022-12-10T10:39:28.405Z,62.25
2022-12-10T10:42:41.881Z,66.45
2022-12-10T10:45:49.363Z,65.93
2022-12-10T10:48:51.815Z,66.75
2022-12-10T10:54:56.890Z,68.97
2022-12-10T10:57:58.858Z,68.15
2022-12-10T11:01:08.726Z,60.22
2022-12-10T11:04:10.492Z,63.47
2022-12-10T11:07:21.616Z,63.08
2022-12-10T11:10:25.926Z,64.13
2022-12-10T11:13:29.902Z,63.55
2022-12-10T11:16:31.369Z,56.33
2022-12-10T11:19:32.861Z,60.97
2022-12-10T11:22:34.825Z,55.80
2022-12-10T11:25:51.063Z,62.38
2022-12-10T11:29:21.870Z,59.45
2022-12-10T11:32:35.574Z,60.10
2022-12-10T11:35:55.598Z,53.25
2022-12-10T11:39:15.272Z,57.85
2022-12-10T11:42:28.724Z,59.40
2022-12-10T11:45:42.397Z,57.90
2022-12-10T11:48:52.876Z,51.40
2022-12-10T11:52:07.097Z,56.83
2022-12-10T11:55:36.428Z,56.53
2022-12-10T11:58:53.003Z,58.63
2022-12-10T12:02:20.826Z,54.38
2022-12-10T12:05:28.691Z,59.05
2022-12-10T12:08:50.791Z,51.70
2022-12-10T12:11:58.002Z,54.75
2022-12-10T12:15:06.400Z,52.53
2022-12-10T12:18:26.957Z,55.75
2022-12-10T12:21:28.457Z,54.75
2022-12-10T12:24:36.965Z,55.13
2022-12-10T12:27:47.871Z,51.58
2022-12-10T12:31:00.531Z,56.92
2022-12-10T12:34:16.703Z,53.38
2022-12-10T12:37:23.219Z,53.67
2022-12-10T12:40:40.976Z,50.05
2022-12-10T12:43:55.960Z,50.28
2022-12-10T12:47:03.154Z,51.17
2022-12-10T12:50:12.655Z,53.60
2022-12-10T12:53:17.056Z,49.78
2022-12-10T12:56:38.216Z,55.72
2022-12-10T13:00:08.274Z,57.15
2022-12-10T13:03:25.367Z,55.78
2022-12-10T13:06:33.334Z,52.15
2022-12-10T13:09:43.502Z,52.85
2022-12-10T13:13:08.330Z,49.83
2022-12-10T13:16:35.868Z,54.78
2022-12-10T13:19:37.519Z,45.30
2022-12-10T13:22:38.907Z,52.50
2022-12-10T13:25:57.898Z,57.03
2022-12-10T13:29:24.546Z,55.75
2022-12-10T13:32:32.676Z,46.10
2022-12-10T13:35:44.528Z,47.63
2022-12-10T13:39:19.174Z,46.20
2022-12-10T13:42:47.657Z,46.40
2022-12-10T13:45:49.132Z,52.75
2022-12-10T13:48:55.702Z,48.67
2022-12-10T13:52:07.555Z,51.38
2022-12-10T13:55:20.867Z,47.25
2022-12-10T13:58:34.526Z,54.55
2022-12-10T14:01:43.647Z,48.75
2022-12-10T14:04:51.122Z,53.03
2022-12-10T14:07:57.188Z,55.75
2022-12-10T14:11:00.510Z,56.13
2022-12-10T14:14:03.141Z,53.42
2022-12-10T14:17:22.561Z,42.50
2022-12-10T14:20:26.065Z,40.50
2022-12-10T14:23:39.867Z,52.25
2022-12-10T14:26:45.786Z,44.65
2022-12-10T14:30:00.029Z,46.53
2022-12-10T14:33:01.512Z,39.85
2022-12-10T14:36:03.536Z,47.53
2022-12-10T14:39:05.279Z,44.55
2022-12-10T14:42:07.933Z,48.08
2022-12-10T14:45:15.376Z,46.72
2022-12-10T14:48:17.425Z,47.13
2022-12-10T14:51:24.589Z,47.15
2022-12-10T14:54:33.898Z,48.47
2022-12-10T14:57:41.029Z,52.50
2022-12-10T15:00:42.552Z,47.53
2022-12-10T15:03:48.779Z,47.57
2022-12-10T15:06:50.313Z,44.63
2022-12-10T15:09:54.690Z,45.60
2022-12-10T15:12:57.063Z,47.30
2022-12-10T15:19:29.409Z,48.25
2022-12-10T15:22:34.474Z,43.25
2022-12-10T15:25:46.116Z,53.17
2022-12-10T15:28:50.155Z,53.72
2022-12-10T15:31:58.272Z,51.97
2022-12-10T15:35:04.831Z,60.25
2022-12-10T15:38:06.297Z,53.70
2022-12-10T15:41:35.261Z,50.90
2022-12-10T15:44:46.769Z,54.50
2022-12-10T15:47:48.267Z,52.38
2022-12-10T15:50:50.827Z,53.65
2022-12-10T15:53:52.345Z,52.33
2022-12-10T15:56:53.897Z,57.30
2022-12-10T15:59:58.593Z,56.72
2022-12-10T16:03:06.335Z,58.05
2022-12-10T16:06:07.767Z,54.95
2022-12-10T16:09:10.571Z,59.73
2022-12-10T16:12:14.136Z,56.97
2022-12-10T16:15:21.983Z,60.10
2022-12-10T16:18:23.415Z,63.20
2022-12-10T16:21:24.896Z,62.87
2022-12-10T16:24:26.339Z,56.27
2022-12-10T16:27:28.278Z,56.88
2022-12-10T16:30:38.842Z,61.03
2022-12-10T16:33:42.811Z,54.92
2022-12-10T16:36:44.235Z,55.50
2022-12-10T16:39:51.406Z,51.67
2022-12-10T16:42:56.031Z,50.58
2022-12-10T16:45:57.896Z,49.97
2022-12-10T16:48:59.456Z,49.08
2022-12-10T16:52:00.861Z,63.63
2022-12-10T16:55:03.141Z,64.85
2022-12-10T16:58:10.509Z,58.60
2022-12-10T17:01:16.798Z,60.75
2022-12-10T17:04:18.250Z,73.63
2022-12-10T17:07:20.862Z,92.65
2022-12-10T17:10:47.995Z,88.53
2022-12-10T17:13:49.462Z,87.90
2022-12-10T17:16:52.761Z,77.50
2022-12-10T17:19:54.226Z,66.30
2022-12-10T17:22:55.997Z,72.60
2022-12-10T17:25:58.296Z,67.22
2022-12-10T17:29:10.017Z,74.20
2022-12-10T17:32:14.949Z,74.27
2022-12-10T17:35:16.905Z,62.40
2022-12-10T17:38:22.001Z,69.72
2022-12-10T17:41:23.433Z,67.63
2022-12-10T17:44:24.916Z,70.30
2022-12-10T17:47:26.376Z,65.73
2022-12-10T17:50:34.683Z,58.17
2022-12-10T17:53:36.404Z,64.40
2022-12-10T17:56:38.081Z,63.92
2022-12-10T17:59:43.379Z,60.65
2022-12-10T18:02:44.859Z,59.97
2022-12-10T18:05:46.805Z,66.93
2022-12-10T18:08:49.688Z,63.85
2022-12-10T18:11:51.741Z,64.00
2022-12-10T18:14:53.127Z,73.80
2022-12-10T18:17:54.652Z,67.38
2022-12-10T18:20:56.117Z,71.60
2022-12-10T18:23:57.656Z,72.60
2022-12-10T18:26:59.249Z,68.60
2022-12-10T18:30:00.976Z,69.90
2022-12-10T18:33:02.423Z,70.00
2022-12-10T18:36:04.504Z,68.22
2022-12-10T18:39:21.863Z,64.65
2022-12-10T18:42:23.291Z,60.10
2022-12-10T18:45:24.777Z,65.53
2022-12-10T18:48:26.249Z,65.77
2022-12-10T18:51:27.942Z,61.45
2022-12-10T18:54:29.355Z,63.47
2022-12-10T18:57:34.168Z,62.65
2022-12-10T19:00:37.854Z,62.33
2022-12-10T19:03:43.465Z,65.97
2022-12-10T19:06:49.575Z,74.28
2022-12-10T19:09:52.600Z,76.70
2022-12-10T19:12:54.054Z,69.07
2022-12-10T19:15:55.631Z,74.73
2022-12-10T19:19:02.075Z,70.88
2022-12-10T19:22:04.069Z,82.10
2022-12-10T19:25:06.019Z,73.90
2022-12-10T19:28:07.636Z,75.82
2022-12-10T19:31:13.072Z,76.97
2022-12-10T19:34:16.438Z,72.15
2022-12-10T19:37:17.949Z,72.82
2022-12-10T19:40:23.542Z,72.47
2022-12-10T19:43:24.960Z,68.32
2022-12-10T19:46:27.500Z,68.57
2022-12-10T19:49:29.063Z,64.97
2022-12-10T19:52:30.490Z,75.07
2022-12-10T19:55:32.107Z,101.50
2022-12-10T19:58:33.532Z,88.82
2022-12-10T20:01:35.046Z,87.82
2022-12-10T20:04:36.547Z,83.60
2022-12-10T20:07:38.081Z,79.95
2022-12-10T20:10:39.574Z,69.67
2022-12-10T20:13:43.110Z,68.83
2022-12-10T20:16:46.383Z,67.00
2022-12-10T20:19:48.165Z,69.15
2022-12-10T20:22:50.411Z,69.70
2022-12-10T20:25:51.945Z,70.53
2022-12-10T20:28:53.423Z,72.17
2022-12-10T20:31:56.597Z,78.78
2022-12-10T20:34:58.212Z,79.00
2022-12-10T20:37:59.723Z,72.97
2022-12-10T20:41:01.191Z,70.97
2022-12-10T20:44:02.650Z,73.32
2022-12-10T20:47:09.670Z,71.97
2022-12-10T20:50:15.780Z,72.22
2022-12-10T20:53:17.401Z,66.70
2022-12-10T20:56:22.106Z,58.38
2022-12-10T20:59:23.977Z,56.33
2022-12-10T21:02:25.592Z,60.63
2022-12-10T21:05:26.997Z,55.13
2022-12-10T21:08:28.829Z,57.60
2022-12-10T21:11:30.355Z,59.70
2022-12-10T21:17:53.338Z,59.22
2022-12-10T21:20:55.805Z,57.40
2022-12-10T21:26:59.613Z,56.78
2022-12-10T21:30:01.060Z,58.80
2022-12-10T21:33:02.681Z,60.23
2022-12-10T21:36:04.393Z,54.37
2022-12-10T21:39:05.922Z,52.15
2022-12-10T21:42:26.277Z,56.67
2022-12-10T21:45:31.531Z,58.97
2022-12-10T21:48:32.987Z,60.38
2022-12-10T21:51:39.545Z,61.67
2022-12-10T21:54:41.896Z,59.50
2022-12-10T21:57:43.345Z,59.17
2022-12-10T22:00:45.121Z,53.35
2022-12-10T22:03:47.149Z,56.10
2022-12-10T22:06:48.576Z,51.72
2022-12-10T22:09:50.795Z,53.45
2022-12-10T22:12:52.346Z,55.25
2022-12-10T22:15:53.866Z,54.17
2022-12-10T22:18:55.417Z,53.03
2022-12-10T22:21:56.841Z,52.10
2022-12-10T22:24:58.267Z,53.43
2022-12-10T22:27:59.723Z,51.55
2022-12-10T22:31:01.219Z,52.67
2022-12-10T22:34:02.849Z,58.03
2022-12-10T22:37:04.253Z,56.93
2022-12-10T22:40:07.295Z,57.40
2022-12-10T22:43:41.094Z,61.42
2022-12-10T22:46:30.681Z,61.57
2022-12-10T22:49:37.195Z,61.60
2022-12-10T22:52:40.362Z,57.65
2022-12-10T22:55:42.062Z,60.83
2022-12-10T22:58:44.300Z,59.13
2022-12-10T23:01:45.750Z,55.58
2022-12-10T23:04:53.339Z,63.20
2022-12-10T23:07:54.805Z,58.75
2022-12-10T23:10:56.508Z,62.20
2022-12-10T23:13:57.981Z,58.65
2022-12-10T23:16:59.591Z,57.23
2022-12-10T23:20:01.019Z,60.53
2022-12-10T23:23:02.512Z,61.45
2022-12-10T23:26:03.923Z,63.20
2022-12-10T23:29:05.772Z,61.08
2022-12-10T23:32:07.227Z,62.30
2022-12-10T23:35:09.565Z,65.53
2022-12-10T23:41:12.889Z,58.30
2022-12-10T23:44:14.314Z,57.03
2022-12-10T23:47:15.703Z,58.63
2022-12-10T23:50:17.286Z,61.17
2022-12-10T23:53:19.332Z,66.47
2022-12-10T23:56:21.377Z,58.42
2022-12-10T23:59:22.805Z,58.85
